Time;durP1;ratioP1;P1;durP2;ratioP2;P2;SDS_P1;SDS_P2;PMS_P1;PMS_P2;Temp;Humidity;BMP_temperature;BMP_pressure;BME280_temperature;BME280_humidity;BME280_pressure;Samples;Min_cycle;Max_cycle;Signal;HPM_P1;HPM_P2
2022/11/11 00:00:42;;;;;;;9.50;4.78;;;12.80;75.40;;;;;;5033977;28;20079;-62
2022/11/11 00:03:27;;;;;;;11.30;5.68;;;12.80;75.50;;;;;;5032598;28;20121;-62
2022/11/11 00:06:13;;;;;;;10.48;5.03;;;12.80;75.50;;;;;;5032268;28;20374;-62
2022/11/11 00:08:58;;;;;;;11.18;4.90;;;12.80;75.50;;;;;;5045214;28;20478;-62
2022/11/11 00:11:41;;;;;;;12.18;5.30;;;12.80;75.50;;;;;;5033760;28;20056;-62
2022/11/11 00:14:25;;;;;;;9.88;5.25;;;12.80;75.60;;;;;;5032518;28;20040;-62
2022/11/11 00:26:27;;;;;;;20.98;5.80;;;12.70;75.60;;;;;;5031458;28;20040;-62
2022/11/11 00:29:12;;;;;;;10.52;4.80;;;12.70;76.30;;;;;;5035383;28;20107;-62
2022/11/11 00:38:44;;;;;;;11.48;5.05;;;12.70;75.80;;;;;;5031907;28;20043;-62
2022/11/11 00:41:21;;;;;;;11.60;5.30;;;12.70;75.80;;;;;;5036119;28;20040;-62
2022/11/11 00:44:05;;;;;;;14.35;6.55;;;12.70;75.80;;;;;;5035434;28;20473;-62
2022/11/11 00:52:55;;;;;;;11.32;5.88;;;12.70;75.80;;;;;;5048209;28;20072;-62
2022/11/11 00:55:39;;;;;;;12.05;6.40;;;12.70;75.80;;;;;;5027769;28;20112;-62
2022/11/11 00:58:24;;;;;;;11.95;6.25;;;12.70;75.90;;;;;;5050390;28;20044;-62
2022/11/11 01:01:08;;;;;;;13.32;7.00;;;12.70;75.90;;;;;;5047878;28;20091;-62
2022/11/11 01:03:52;;;;;;;12.50;6.40;;;12.70;76.00;;;;;;5031675;28;20164;-62
2022/11/11 01:06:36;;;;;;;11.15;6.97;;;12.70;76.00;;;;;;5030563;28;20041;-62
2022/11/11 01:09:20;;;;;;;15.38;7.75;;;12.70;76.00;;;;;;5026982;28;20075;-62
2022/11/11 01:12:04;;;;;;;11.23;6.95;;;12.70;76.00;;;;;;5036038;28;20059;-62
2022/11/11 01:14:48;;;;;;;11.15;6.63;;;12.70;76.00;;;;;;5045595;28;20501;-62
2022/11/11 01:17:32;;;;;;;11.90;7.45;;;12.80;76.10;;;;;;5039374;28;20063;-63
2022/11/11 01:20:16;;;;;;;14.65;7.38;;;12.70;76.10;;;;;;5049597;28;20178;-62
2022/11/11 01:23:00;;;;;;;15.68;7.57;;;12.80;76.10;;;;;;5038070;28;20106;-62
2022/11/11 01:25:45;;;;;;;11.15;7.20;;;12.70;76.10;;;;;;5036061;28;20056;-62
2022/11/11 01:28:30;;;;;;;12.52;7.68;;;12.80;76.20;;;;;;5042780;28;20113;-62
2022/11/11 01:31:16;;;;;;;13.70;8.10;;;12.70;76.10;;;;;;5031703;28;20369;-62
2022/11/11 01:34:01;;;;;;;16.17;8.13;;;12.80;76.30;;;;;;5028782;28;20120;-62
2022/11/11 01:36:44;;;;;;;15.40;8.45;;;12.70;76.30;;;;;;5041857;28;20155;-62
2022/11/11 01:39:29;;;;;;;12.40;8.00;;;12.70;76.20;;;;;;5047147;28;20037;-62
2022/11/11 01:42:13;;;;;;;12.45;8.18;;;12.70;76.30;;;;;;5049630;28;20180;-62
2022/11/11 01:44:57;;;;;;;12.90;8.90;;;12.80;76.40;;;;;;5036075;28;20127;-62
2022/11/11 01:50:44;;;;;;;13.77;8.93;;;12.70;76.40;;;;;;5041560;28;20048;-62
2022/11/11 01:53:29;;;;;;;13.25;8.48;;;12.80;76.50;;;;;;5037435;28;20035;-62
2022/11/11 01:56:13;;;;;;;14.48;8.82;;;12.70;76.40;;;;;;5035850;28;20044;-62
2022/11/11 01:59:04;;;;;;;13.80;8.68;;;12.70;76.50;;;;;;5048865;28;20090;-62
2022/11/11 02:01:49;;;;;;;15.30;8.60;;;12.70;76.60;;;;;;5044997;28;20101;-62
2022/11/11 02:07:40;;;;;;;15.18;9.18;;;12.70;76.70;;;;;;5039694;28;20043;-62
2022/11/11 02:10:27;;;;;;;14.82;9.48;;;12.80;76.70;;;;;;5042591;28;20442;-62
2022/11/11 02:16:16;;;;;;;14.77;9.82;;;12.80;76.90;;;;;;5040049;28;20047;-62
2022/11/11 02:19:00;;;;;;;16.90;9.23;;;12.80;76.90;;;;;;5055514;28;20060;-62
2022/11/11 02:21:54;;;;;;;14.52;9.55;;;12.80;76.90;;;;;;5024178;28;20369;-62
2022/11/11 02:24:39;;;;;;;16.50;9.38;;;12.80;76.90;;;;;;5047557;28;20040;-62
2022/11/11 02:27:27;;;;;;;14.23;8.90;;;12.80;76.90;;;;;;5044854;28;20377;-62
2022/11/11 02:30:15;;;;;;;15.35;8.57;;;12.80;77.00;;;;;;5021931;28;20227;-62
2022/11/11 02:32:59;;;;;;;15.50;8.93;;;12.80;77.00;;;;;;5038386;28;20043;-62
2022/11/11 02:35:54;;;;;;;16.50;10.25;;;12.80;77.00;;;;;;5045740;28;20037;-62
2022/11/11 02:38:38;;;;;;;16.02;9.57;;;12.80;77.10;;;;;;5027706;28;20596;-62
2022/11/11 02:44:26;;;;;;;15.98;9.27;;;12.80;77.20;;;;;;5041849;28;20177;-62
2022/11/11 02:47:10;;;;;;;16.45;9.95;;;12.70;77.20;;;;;;5037378;28;20078;-62
2022/11/11 02:49:55;;;;;;;15.35;9.30;;;12.80;77.30;;;;;;5035950;28;20048;-62
2022/11/11 02:52:39;;;;;;;15.85;9.68;;;12.80;77.40;;;;;;5034010;28;20095;-62
2022/11/11 02:55:24;;;;;;;15.15;9.30;;;12.80;77.40;;;;;;5043916;28;20389;-62
2022/11/11 02:58:08;;;;;;;14.98;9.38;;;12.80;77.40;;;;;;5037568;28;20088;-62
2022/11/11 03:00:52;;;;;;;19.67;10.50;;;12.80;77.30;;;;;;5021958;28;20041;-62
2022/11/11 03:03:36;;;;;;;18.30;9.68;;;12.90;77.40;;;;;;5042367;28;20103;-62
2022/11/11 03:06:20;;;;;;;15.70;9.15;;;12.90;77.40;;;;;;5042430;28;20420;-62
2022/11/11 03:09:04;;;;;;;15.88;9.60;;;12.80;77.30;;;;;;5047175;28;20124;-62
2022/11/11 03:11:48;;;;;;;15.23;9.20;;;12.90;77.50;;;;;;5039761;28;20139;-62
2022/11/11 03:14:33;;;;;;;16.90;9.43;;;12.90;77.40;;;;;;5031286;28;20056;-62
2022/11/11 03:23:23;;;;;;;14.38;9.63;;;12.90;77.50;;;;;;5030968;28;20516;-62
2022/11/11 03:26:07;;;;;;;14.38;9.20;;;12.80;77.40;;;;;;5044185;28;20032;-62
2022/11/11 03:28:51;;;;;;;16.58;9.68;;;12.80;77.60;;;;;;5046277;28;20127;-62
2022/11/11 03:31:36;;;;;;;14.30;9.23;;;12.80;77.60;;;;;;5045274;28;20115;-62
2022/11/11 03:34:20;;;;;;;14.13;8.32;;;12.80;77.60;;;;;;5032189;28;20370;-62
2022/11/11 03:40:10;;;;;;;14.40;8.27;;;12.80;77.70;;;;;;5054258;28;20044;-62
2022/11/11 03:42:55;;;;;;;17.13;9.07;;;12.80;77.70;;;;;;5034752;28;20436;-62
2022/11/11 03:45:40;;;;;;;14.10;9.18;;;12.80;77.70;;;;;;5021532;28;20045;-62
2022/11/11 03:48:25;;;;;;;13.52;9.07;;;12.90;77.70;;;;;;5035780;28;20053;-62
2022/11/11 03:51:09;;;;;;;13.63;8.82;;;12.90;77.70;;;;;;5042459;28;20044;-62
2022/11/11 03:53:53;;;;;;;14.40;8.60;;;12.80;77.60;;;;;;5038654;28;20044;-62
2022/11/11 03:56:37;;;;;;;14.98;9.18;;;12.80;77.70;;;;;;5048784;28;20101;-62
2022/11/11 03:59:21;;;;;;;14.70;8.13;;;12.80;77.70;;;;;;5054927;28;20052;-62
2022/11/11 04:11:32;;;;;;;13.77;8.18;;;12.80;77.90;;;;;;5051074;28;20136;-62
2022/11/11 04:17:19;;;;;;;14.23;8.38;;;12.80;78.00;;;;;;5041255;28;20386;-62
2022/11/11 04:23:06;;;;;;;13.48;8.40;;;12.80;78.00;;;;;;5037430;28;20044;-62
2022/11/11 04:25:52;;;;;;;16.10;7.85;;;12.70;77.90;;;;;;5049833;28;20093;-62
2022/11/11 04:32:34;;;;;;;12.90;7.70;;;12.70;77.90;;;;;;5051089;28;20052;-62
2022/11/11 04:34:52;;;;;;;13.23;7.82;;;12.80;78.00;;;;;;5038677;28;20067;-62
2022/11/11 04:37:48;;;;;;;13.32;7.75;;;12.80;78.00;;;;;;5048311;28;20039;-62
2022/11/11 04:46:55;;;;;;;12.73;7.40;;;12.70;78.10;;;;;;5010481;28;21751;-62
2022/11/11 04:49:39;;;;;;;14.35;7.50;;;12.70;78.00;;;;;;5028889;28;20127;-62
2022/11/11 04:52:26;;;;;;;19.17;8.52;;;12.70;78.10;;;;;;5013044;28;20078;-62
2022/11/11 04:58:14;;;;;;;14.55;7.78;;;12.70;78.00;;;;;;5020648;28;20044;-62
2022/11/11 05:00:58;;;;;;;14.40;8.07;;;12.70;78.00;;;;;;5001847;28;20120;-62
2022/11/11 05:03:42;;;;;;;13.45;8.02;;;12.80;78.00;;;;;;5005805;28;20497;-62
2022/11/11 05:09:29;;;;;;;12.77;7.30;;;12.70;78.00;;;;;;5018271;28;20043;-62
2022/11/11 05:12:14;;;;;;;17.08;7.97;;;12.70;78.00;;;;;;5017626;28;20049;-62
2022/11/11 05:21:20;;;;;;;13.40;8.13;;;12.70;78.00;;;;;;5049995;28;20060;-62
2022/11/11 05:27:08;;;;;;;12.25;7.65;;;12.60;78.00;;;;;;5043938;28;20059;-62
2022/11/11 05:29:53;;;;;;;13.60;8.07;;;12.60;78.00;;;;;;5045236;28;20030;-62
2022/11/11 05:32:37;;;;;;;16.63;8.25;;;12.60;77.90;;;;;;5039673;28;20469;-62
2022/11/11 05:35:22;;;;;;;13.43;7.82;;;12.70;78.00;;;;;;5041908;28;20047;-62
2022/11/11 05:38:21;;;;;;;14.63;7.60;;;12.60;77.90;;;;;;5045661;28;20473;-62
2022/11/11 05:41:07;;;;;;;13.77;7.78;;;12.60;78.00;;;;;;5035209;28;20029;-62
2022/11/11 05:43:51;;;;;;;13.55;8.00;;;12.60;78.10;;;;;;5036757;28;20044;-62
2022/11/11 05:46:35;;;;;;;13.68;7.82;;;12.60;78.10;;;;;;5042022;28;20041;-62
2022/11/11 05:49:19;;;;;;;12.73;7.95;;;12.60;78.10;;;;;;5035168;28;20084;-62
2022/11/11 05:52:05;;;;;;;12.20;7.53;;;12.50;78.10;;;;;;5036642;28;20051;-63
2022/11/11 05:54:49;;;;;;;14.77;7.80;;;12.60;78.10;;;;;;5033008;28;20528;-62
2022/11/11 05:57:33;;;;;;;13.68;8.13;;;12.60;78.10;;;;;;5034279;28;20033;-62
2022/11/11 06:00:17;;;;;;;13.35;7.75;;;12.50;78.10;;;;;;5032752;28;20417;-62
2022/11/11 06:03:04;;;;;;;13.32;8.07;;;12.50;78.10;;;;;;5032349;28;20044;-62
2022/11/11 06:05:48;;;;;;;13.02;8.10;;;12.50;78.10;;;;;;5034120;28;20378;-62
2022/11/11 06:08:32;;;;;;;13.70;7.78;;;12.50;78.20;;;;;;5032290;28;20044;-62
2022/11/11 06:11:17;;;;;;;13.25;7.55;;;12.50;78.20;;;;;;5028091;28;20103;-62
2022/11/11 06:14:01;;;;;;;12.70;7.32;;;12.50;78.10;;;;;;5026749;28;20136;-62
2022/11/11 06:16:46;;;;;;;12.25;7.38;;;12.50;78.10;;;;;;5034175;28;20438;-62
2022/11/11 06:19:29;;;;;;;14.70;7.65;;;12.40;78.10;;;;;;5033610;28;20056;-62
2022/11/11 06:22:13;;;;;;;12.98;7.55;;;12.40;78.30;;;;;;5034377;28;20043;-62
2022/11/11 06:26:11;;;;;;;12.23;7.95;;;12.40;78.30;;;;;;5041639;28;20032;-62
2022/11/11 06:28:01;;;;;;;11.95;7.78;;;12.40;78.30;;;;;;5037819;28;20064;-62
2022/11/11 06:30:45;;;;;;;16.90;8.20;;;12.40;78.30;;;;;;5031992;28;20040;-62
2022/11/11 06:33:30;;;;;;;14.35;8.13;;;12.40;78.30;;;;;;5035235;28;20050;-62
2022/11/11 06:36:17;;;;;;;14.07;8.48;;;12.40;78.30;;;;;;5048828;28;20040;-62
2022/11/11 06:39:01;;;;;;;14.15;8.65;;;12.40;78.30;;;;;;5048168;28;20120;-62
2022/11/11 06:41:45;;;;;;;14.15;8.38;;;12.50;78.30;;;;;;5052852;28;20048;-62
2022/11/11 06:44:29;;;;;;;14.55;8.23;;;12.40;78.20;;;;;;5043795;28;20040;-62
2022/11/11 06:47:14;;;;;;;15.68;8.95;;;12.40;78.20;;;;;;5030614;28;20052;-62
2022/11/11 06:49:59;;;;;;;15.07;8.95;;;12.40;78.30;;;;;;5032738;28;20047;-62
2022/11/11 06:52:43;;;;;;;16.52;9.32;;;12.40;78.20;;;;;;5054769;28;20040;-62
2022/11/11 06:55:27;;;;;;;12.52;8.27;;;12.40;78.30;;;;;;5042052;28;20354;-62
2022/11/11 06:58:17;;;;;;;15.25;9.68;;;12.30;78.20;;;;;;5054154;28;20543;-62
2022/11/11 07:01:06;;;;;;;16.73;9.88;;;12.30;78.20;;;;;;5035375;28;20057;-62
2022/11/11 07:03:50;;;;;;;15.35;10.00;;;12.30;78.20;;;;;;5050113;28;20043;-62
2022/11/11 07:06:34;;;;;;;16.65;9.90;;;12.30;78.10;;;;;;5046990;28;20102;-62
2022/11/11 07:09:18;;;;;;;17.25;10.85;;;12.30;78.10;;;;;;5034911;28;20049;-62
2022/11/11 07:12:02;;;;;;;17.67;10.48;;;12.20;78.00;;;;;;5049898;28;20098;-62
2022/11/11 07:14:46;;;;;;;16.10;9.70;;;12.20;78.00;;;;;;5045307;28;20087;-62
2022/11/11 07:17:30;;;;;;;15.35;10.43;;;12.20;78.00;;;;;;5033369;28;20118;-62
2022/11/11 07:20:14;;;;;;;15.43;9.93;;;12.10;78.00;;;;;;5033647;28;20083;-62
2022/11/11 07:22:58;;;;;;;16.65;10.90;;;12.20;78.00;;;;;;5034253;28;20067;-62
2022/11/11 07:25:43;;;;;;;15.98;10.55;;;12.20;77.90;;;;;;5035779;28;20095;-62
2022/11/11 07:28:27;;;;;;;19.08;11.32;;;12.20;77.90;;;;;;5034557;28;20504;-62
2022/11/11 07:31:11;;;;;;;16.98;10.65;;;12.20;77.90;;;;;;5027736;28;20287;-63
2022/11/11 07:33:55;;;;;;;19.90;11.70;;;12.20;77.80;;;;;;5029741;28;20412;-62
2022/11/11 07:36:39;;;;;;;16.77;10.98;;;12.20;78.40;;;;;;5036230;28;20091;-62
2022/11/11 07:39:23;;;;;;;18.23;12.00;;;12.20;77.70;;;;;;5038071;28;20084;-62
2022/11/11 07:42:07;;;;;;;17.13;11.18;;;12.20;77.50;;;;;;5038539;28;20095;-62
2022/11/11 07:44:51;;;;;;;17.10;10.70;;;12.20;77.40;;;;;;5037372;28;20052;-61
2022/11/11 07:47:35;;;;;;;16.58;11.35;;;12.20;77.30;;;;;;5036437;28;20037;-62
2022/11/11 07:50:19;;;;;;;17.75;11.18;;;12.20;77.20;;;;;;5036530;28;20032;-62
2022/11/11 07:53:03;;;;;;;17.90;11.48;;;12.20;77.00;;;;;;5036498;28;20393;-62
2022/11/11 07:55:47;;;;;;;17.10;11.77;;;12.20;77.00;;;;;;5034406;28;20040;-62
2022/11/11 07:58:31;;;;;;;18.27;12.45;;;12.20;76.90;;;;;;5035542;28;20047;-62
2022/11/11 08:01:15;;;;;;;18.50;10.88;;;12.10;76.80;;;;;;5036151;28;20040;-63
2022/11/11 08:03:59;;;;;;;17.92;11.88;;;12.10;76.90;;;;;;5035338;28;20454;-62
2022/11/11 08:06:44;;;;;;;20.35;11.57;;;12.10;76.90;;;;;;5035331;28;20037;-62
2022/11/11 08:09:27;;;;;;;19.08;11.73;;;12.10;76.90;;;;;;5037101;28;20378;-62
2022/11/11 08:15:15;;;;;;;17.55;10.32;;;12.10;76.90;;;;;;5032319;28;20040;-62
2022/11/11 08:17:59;;;;;;;17.83;11.07;;;12.10;76.90;;;;;;5027770;28;20092;-62
2022/11/11 08:20:43;;;;;;;18.67;11.20;;;12.10;76.80;;;;;;5036076;28;20040;-62
2022/11/11 08:23:33;;;;;;;18.08;11.05;;;12.10;76.70;;;;;;5032298;28;20390;-62
2022/11/11 08:26:18;;;;;;;18.10;11.57;;;12.10;76.60;;;;;;5036766;28;20086;-62
2022/11/11 08:29:02;;;;;;;17.63;10.65;;;12.10;76.60;;;;;;5030809;28;20044;-62
2022/11/11 08:31:46;;;;;;;15.50;9.88;;;12.10;77.10;;;;;;5033013;28;20107;-64
2022/11/11 08:34:30;;;;;;;14.63;10.15;;;12.20;76.40;;;;;;5033469;28;20116;-62
2022/11/11 08:37:14;;;;;;;17.17;10.50;;;12.20;76.30;;;;;;5034618;28;20068;-62
2022/11/11 08:39:58;;;;;;;15.75;9.43;;;12.20;76.20;;;;;;5034185;28;20432;-62
2022/11/11 08:42:42;;;;;;;13.57;8.55;;;12.20;76.10;;;;;;5034613;28;20090;-62
2022/11/11 08:45:26;;;;;;;13.63;8.85;;;12.30;76.00;;;;;;5032951;28;20036;-62
2022/11/11 08:48:11;;;;;;;14.27;8.95;;;12.30;75.90;;;;;;5034846;28;20044;-62
2022/11/11 08:50:55;;;;;;;15.35;8.25;;;12.30;76.40;;;;;;5033662;28;20121;-62
2022/11/11 08:53:40;;;;;;;15.30;8.63;;;12.40;75.60;;;;;;5034428;28;20048;-62
2022/11/11 08:56:24;;;;;;;14.57;8.57;;;12.40;75.40;;;;;;5036225;28;20508;-62
2022/11/11 08:59:09;;;;;;;14.45;8.00;;;12.40;75.30;;;;;;5035537;28;20142;-62
2022/11/11 09:01:53;;;;;;;15.20;8.52;;;12.40;75.20;;;;;;5035264;28;20037;-63
2022/11/11 09:04:38;;;;;;;15.63;7.85;;;12.50;75.20;;;;;;5035197;28;20132;-63
2022/11/11 09:07:23;;;;;;;14.65;8.13;;;12.50;75.00;;;;;;5035769;28;20366;-63
2022/11/11 09:10:07;;;;;;;14.45;8.18;;;12.50;74.90;;;;;;5035558;28;20068;-62
2022/11/11 09:12:57;;;;;;;12.93;7.93;;;12.50;74.80;;;;;;5035275;28;20074;-62
2022/11/11 09:15:41;;;;;;;12.65;6.95;;;12.60;74.70;;;;;;5035638;28;20091;-62
2022/11/11 09:18:26;;;;;;;12.32;7.28;;;12.60;74.60;;;;;;5035458;28;20068;-62
2022/11/11 09:21:10;;;;;;;15.60;7.30;;;12.70;74.50;;;;;;5035513;28;20036;-63
2022/11/11 09:23:54;;;;;;;11.57;6.90;;;12.70;74.30;;;;;;5035895;28;20072;-62
2022/11/11 09:26:38;;;;;;;12.80;6.80;;;12.70;74.10;;;;;;5037273;28;20036;-62
2022/11/11 09:29:22;;;;;;;13.25;7.20;;;12.70;74.00;;;;;;5035976;28;20071;-63
2022/11/11 09:32:07;;;;;;;13.10;7.03;;;12.80;73.90;;;;;;5035241;28;20381;-62
2022/11/11 09:34:51;;;;;;;12.40;6.63;;;12.90;73.80;;;;;;5035072;28;20051;-62
2022/11/11 09:37:35;;;;;;;10.85;6.13;;;12.90;73.70;;;;;;5033640;28;20041;-62
2022/11/11 09:40:22;;;;;;;13.00;6.57;;;12.90;73.50;;;;;;5035583;28;20028;-62
2022/11/11 09:43:25;;;;;;;12.90;5.85;;;13.00;73.40;;;;;;5036681;28;20087;-62
2022/11/11 09:46:18;;;;;;;12.32;6.57;;;13.10;73.20;;;;;;5035229;28;20076;-63
2022/11/11 09:49:23;;;;;;;13.07;6.68;;;13.10;73.10;;;;;;5032974;28;20120;-63
2022/11/11 09:52:19;;;;;;;12.57;6.30;;;13.20;72.70;;;;;;5036110;28;21164;-63
2022/11/11 09:55:23;;;;;;;12.25;5.80;;;13.30;72.60;;;;;;5037032;28;20454;-62
2022/11/11 09:58:18;;;;;;;12.38;6.32;;;13.40;72.40;;;;;;5031119;28;20076;-63
2022/11/11 10:01:22;;;;;;;10.18;5.35;;;13.50;72.30;;;;;;5036760;28;20095;-62
2022/11/11 10:04:22;;;;;;;12.65;6.15;;;13.60;72.00;;;;;;5028379;28;20044;-62
2022/11/11 10:07:19;;;;;;;10.68;5.97;;;13.80;71.80;;;;;;5033295;28;20671;-63
2022/11/11 10:10:20;;;;;;;10.57;5.75;;;14.00;71.70;;;;;;5038681;28;20035;-63
2022/11/11 10:13:13;;;;;;;10.73;5.68;;;14.10;71.20;;;;;;5036398;28;20087;-63
2022/11/11 10:16:16;;;;;;;9.23;5.45;;;14.30;70.80;;;;;;5032306;28;20028;-63
2022/11/11 10:19:26;;;;;;;11.00;5.47;;;14.50;70.40;;;;;;5046882;28;20505;-63
2022/11/11 10:22:24;;;;;;;9.35;5.20;;;14.60;70.10;;;;;;5031554;28;20036;-63
2022/11/11 10:25:11;;;;;;;9.80;5.13;;;14.70;69.80;;;;;;5034502;28;20033;-63
2022/11/11 10:27:59;;;;;;;10.05;5.13;;;14.80;69.70;;;;;;5033185;28;20040;-63
2022/11/11 10:30:44;;;;;;;9.55;4.70;;;14.80;69.70;;;;;;5033909;28;20186;-63
2022/11/11 10:33:40;;;;;;;9.70;5.30;;;14.80;69.50;;;;;;5035118;28;20087;-63
2022/11/11 10:36:27;;;;;;;8.45;4.50;;;14.90;69.30;;;;;;5034437;28;21058;-63
2022/11/11 10:39:24;;;;;;;10.75;4.53;;;15.00;69.20;;;;;;5033632;28;20043;-62
2022/11/11 10:42:17;;;;;;;8.68;4.72;;;15.10;68.80;;;;;;5034059;28;20060;-63
2022/11/11 10:45:10;;;;;;;8.15;4.40;;;15.20;68.60;;;;;;5035185;28;20036;-63
2022/11/11 10:48:00;;;;;;;9.57;4.35;;;15.30;68.50;;;;;;5039209;28;20036;-63
2022/11/11 10:50:52;;;;;;;8.52;4.82;;;15.30;68.40;;;;;;5031803;28;20040;-63
2022/11/11 10:53:45;;;;;;;8.90;4.80;;;15.40;68.20;;;;;;5035214;28;20075;-63
2022/11/11 10:56:48;;;;;;;9.68;4.55;;;15.50;68.00;;;;;;5030083;28;20120;-63
2022/11/11 10:59:50;;;;;;;9.00;4.38;;;15.50;67.80;;;;;;5028439;28;20104;-63
2022/11/11 11:02:58;;;;;;;10.93;4.70;;;15.60;67.70;;;;;;5032157;28;20365;-63
2022/11/11 11:05:52;;;;;;;9.40;4.32;;;15.60;67.60;;;;;;5032885;28;20099;-63
2022/11/11 11:08:43;;;;;;;8.13;4.22;;;15.60;67.60;;;;;;5032675;28;20044;-63
2022/11/11 11:11:36;;;;;;;8.27;4.18;;;15.60;67.60;;;;;;5032831;28;20042;-63
2022/11/11 11:14:29;;;;;;;7.63;4.00;;;15.60;67.60;;;;;;5027418;28;20079;-63
2022/11/11 11:17:25;;;;;;;9.45;4.47;;;15.50;67.70;;;;;;5033680;28;20366;-63
2022/11/11 11:20:16;;;;;;;8.15;4.63;;;15.50;67.70;;;;;;5042539;28;20136;-64
2022/11/11 11:23:01;;;;;;;9.05;4.68;;;15.40;68.50;;;;;;5037965;28;20139;-63
2022/11/11 11:25:53;;;;;;;11.88;4.82;;;15.40;67.80;;;;;;5023340;28;20154;-63
2022/11/11 11:28:58;;;;;;;8.75;3.95;;;15.40;67.70;;;;;;5027473;28;20059;-63
2022/11/11 11:31:43;;;;;;;8.10;4.20;;;15.40;67.80;;;;;;5042768;28;20098;-63
2022/11/11 11:34:48;;;;;;;8.63;4.18;;;15.20;67.90;;;;;;5053979;28;20068;-63
2022/11/11 11:37:48;;;;;;;8.73;4.30;;;15.20;68.00;;;;;;5041117;28;20126;-63
2022/11/11 11:40:53;;;;;;;8.82;4.10;;;15.10;68.10;;;;;;5045964;28;20044;-63
2022/11/11 11:43:41;;;;;;;8.27;4.00;;;15.00;68.30;;;;;;5048864;28;20059;-63
2022/11/11 11:46:45;;;;;;;9.13;4.53;;;14.90;68.50;;;;;;5041333;28;20084;-63
2022/11/11 11:49:41;;;;;;;8.60;4.20;;;14.90;68.60;;;;;;5046560;28;20091;-63
2022/11/11 11:52:34;;;;;;;7.70;3.95;;;14.90;68.70;;;;;;5040642;28;20460;-63
2022/11/11 11:55:21;;;;;;;8.73;4.10;;;14.70;68.70;;;;;;5047163;28;20090;-63
2022/11/11 11:58:29;;;;;;;10.82;4.75;;;14.70;68.90;;;;;;5021654;28;20481;-63
2022/11/11 12:01:30;;;;;;;8.25;3.83;;;14.70;68.90;;;;;;5031923;28;20033;-63
2022/11/11 12:04:44;;;;;;;7.75;3.72;;;14.60;69.00;;;;;;5034363;28;20092;-63
2022/11/11 12:07:57;;;;;;;8.15;4.10;;;14.60;69.10;;;;;;5025282;28;20095;-63
2022/11/11 12:10:57;;;;;;;8.18;3.67;;;14.50;69.20;;;;;;5034753;28;20122;-63
2022/11/11 12:14:08;;;;;;;7.78;3.65;;;14.50;69.20;;;;;;5025382;28;20049;-63
2022/11/11 12:17:09;;;;;;;7.32;3.95;;;14.50;69.20;;;;;;5027912;28;20084;-63
2022/11/11 12:20:05;;;;;;;10.40;4.25;;;14.40;69.30;;;;;;5030912;28;20041;-63
2022/11/11 12:23:13;;;;;;;7.38;3.63;;;14.40;69.30;;;;;;5033764;28;20349;-63
2022/11/11 12:26:18;;;;;;;8.48;3.97;;;14.30;69.30;;;;;;5032247;28;20060;-64
2022/11/11 12:29:18;;;;;;;9.43;4.18;;;14.30;69.30;;;;;;5035385;28;20103;-63
2022/11/11 12:32:32;;;;;;;8.18;3.85;;;14.20;69.40;;;;;;5037468;28;20036;-63
2022/11/11 12:35:49;;;;;;;7.13;3.42;;;14.20;69.40;;;;;;5026981;28;20059;-63
2022/11/11 12:38:50;;;;;;;7.95;3.72;;;14.20;69.50;;;;;;5044430;28;20041;-63
2022/11/11 12:41:55;;;;;;;9.77;3.60;;;14.10;69.50;;;;;;5036749;28;20049;-63
2022/11/11 12:45:05;;;;;;;6.93;3.42;;;14.10;69.50;;;;;;5034489;28;20078;-63
2022/11/11 12:48:05;;;;;;;7.80;3.65;;;14.10;69.50;;;;;;5037728;28;20113;-63
2022/11/11 12:51:04;;;;;;;9.23;3.65;;;14.10;69.40;;;;;;5038321;28;20059;-63
2022/11/11 12:54:14;;;;;;;8.20;3.40;;;14.00;69.50;;;;;;5034770;28;20144;-63
2022/11/11 12:57:31;;;;;;;7.83;3.50;;;14.10;69.50;;;;;;5036920;28;20117;-63
2022/11/11 13:00:19;;;;;;;9.45;3.58;;;14.10;69.40;;;;;;5029268;28;20378;-61
2022/11/11 13:03:18;;;;;;;7.25;3.22;;;14.10;69.50;;;;;;5030371;28;20387;-61
2022/11/11 13:06:33;;;;;;;10.23;3.78;;;14.10;69.50;;;;;;5034167;28;20094;-61
2022/11/11 13:09:32;;;;;;;7.30;3.30;;;14.10;69.50;;;;;;5034870;28;20476;-61
2022/11/11 13:12:29;;;;;;;7.55;3.17;;;14.10;69.50;;;;;;5037523;28;20083;-61
2022/11/11 13:15:21;;;;;;;9.43;3.20;;;14.10;69.50;;;;;;5025954;28;20133;-61
2022/11/11 13:18:23;;;;;;;6.18;2.75;;;14.10;69.50;;;;;;5031256;28;20096;-61
2022/11/11 13:21:14;;;;;;;9.63;3.58;;;14.10;69.60;;;;;;5034920;28;20095;-61
2022/11/11 13:23:59;;;;;;;9.82;3.13;;;14.10;69.60;;;;;;5034090;28;20520;-60
2022/11/11 13:26:48;;;;;;;6.40;3.08;;;14.10;69.70;;;;;;5028922;28;20472;-60
2022/11/11 13:29:45;;;;;;;8.07;3.47;;;14.00;69.80;;;;;;5024719;28;20095;-61
2022/11/11 13:32:39;;;;;;;7.63;3.70;;;14.00;69.90;;;;;;5036383;28;20042;-61
2022/11/11 13:35:34;;;;;;;7.53;3.40;;;14.00;69.90;;;;;;5041495;28;20075;-64
2022/11/11 13:38:36;;;;;;;7.18;3.15;;;14.10;70.00;;;;;;5029346;28;20468;-64
2022/11/11 13:41:28;;;;;;;;;;;14.00;70.00;;;;;;5030769;28;20037;-64
2022/11/11 13:44:37;;;;;;;9.90;2.90;;;14.00;70.00;;;;;;5032949;28;19923;-64
2022/11/11 13:47:28;;;;;;;7.07;2.88;;;14.00;70.10;;;;;;5033114;28;20426;-64
2022/11/11 13:50:24;;;;;;;7.60;3.20;;;14.00;70.10;;;;;;5023677;28;20044;-63
2022/11/11 13:53:23;;;;;;;6.88;3.03;;;14.10;70.20;;;;;;5035124;28;20419;-63
2022/11/11 13:56:10;;;;;;;8.38;3.33;;;14.00;70.30;;;;;;5035206;28;20095;-63
2022/11/11 13:58:55;;;;;;;8.85;3.05;;;14.10;70.40;;;;;;5033343;28;20121;-63
2022/11/11 14:01:39;;;;;;;7.32;3.65;;;14.00;70.30;;;;;;5033780;28;20036;-64
2022/11/11 14:04:23;;;;;;;8.10;2.75;;;14.10;70.50;;;;;;5029799;28;20036;-63
2022/11/11 14:07:07;;;;;;;6.63;2.83;;;14.10;70.50;;;;;;5034244;28;20043;-63
2022/11/11 14:10:00;;;;;;;8.30;2.85;;;14.10;70.40;;;;;;5042642;28;20121;-63
2022/11/11 14:12:52;;;;;;;6.05;2.65;;;14.10;70.40;;;;;;5036868;28;20100;-63
2022/11/11 14:15:49;;;;;;;6.75;2.50;;;14.10;70.30;;;;;;5047126;28;20032;-63
2022/11/11 14:18:37;;;;;;;8.20;2.42;;;14.10;70.20;;;;;;5031580;28;20052;-63
2022/11/11 14:21:43;;;;;;;7.70;2.40;;;14.10;70.20;;;;;;5023893;28;20367;-63
2022/11/11 14:24:43;;;;;;;7.25;2.42;;;14.10;70.10;;;;;;5022628;28;20036;-63
2022/11/11 14:27:30;;;;;;;7.55;2.88;;;14.10;70.10;;;;;;5015384;28;20493;-63
2022/11/11 14:30:40;;;;;;;5.78;2.47;;;14.10;70.20;;;;;;5026093;28;20040;-63
2022/11/11 14:33:36;;;;;;;6.70;2.40;;;14.10;70.20;;;;;;5032431;28;20092;-63
2022/11/11 14:36:38;;;;;;;6.53;2.90;;;14.10;70.30;;;;;;5031887;28;20119;-63
2022/11/11 14:39:43;;;;;;;6.00;2.35;;;14.10;70.40;;;;;;5033314;28;20072;-63
2022/11/11 14:42:34;;;;;;;8.02;2.92;;;14.00;70.50;;;;;;5031351;28;20048;-63
2022/11/11 14:45:30;;;;;;;6.97;3.20;;;14.00;70.60;;;;;;5034801;28;20088;-63
2022/11/11 14:48:48;;;;;;;6.43;2.47;;;14.00;70.60;;;;;;5035944;28;20066;-63
2022/11/11 14:51:38;;;;;;;6.55;2.45;;;14.00;70.70;;;;;;5028060;28;20044;-63
2022/11/11 14:54:36;;;;;;;6.07;2.85;;;14.00;70.70;;;;;;5033298;28;20041;-63
2022/11/11 14:57:24;;;;;;;6.85;2.55;;;14.00;70.80;;;;;;5032845;28;20036;-63
2022/11/11 15:00:17;;;;;;;7.63;3.13;;;14.00;70.90;;;;;;5034825;28;20037;-64
2022/11/11 15:03:01;;;;;;;6.82;3.05;;;13.90;70.90;;;;;;5036394;28;20032;-63
2022/11/11 15:05:54;;;;;;;8.38;3.03;;;13.90;71.00;;;;;;5051131;28;20035;-64
2022/11/11 15:08:50;;;;;;;7.05;2.80;;;13.90;71.00;;;;;;5046860;28;20040;-64
2022/11/11 15:11:42;;;;;;;6.93;2.97;;;13.90;71.10;;;;;;5032695;28;20041;-64
2022/11/11 15:14:53;;;;;;;7.30;3.22;;;13.90;71.10;;;;;;5027152;28;20044;-63
2022/11/11 15:18:02;;;;;;;9.00;3.33;;;13.90;71.20;;;;;;5027324;28;20116;-63
2022/11/11 15:21:09;;;;;;;7.53;2.83;;;13.90;71.20;;;;;;5019806;28;20063;-63
2022/11/11 15:24:07;;;;;;;7.43;3.05;;;13.90;71.30;;;;;;5026857;28;20117;-64
2022/11/11 15:27:07;;;;;;;9.35;4.22;;;13.80;71.20;;;;;;5038278;28;20040;-64
2022/11/11 15:30:01;;;;;;;10.00;4.40;;;13.80;71.40;;;;;;5028833;28;20112;-65
2022/11/11 15:33:01;;;;;;;9.35;4.32;;;13.80;71.50;;;;;;5022716;28;20037;-66
2022/11/11 15:35:55;;;;;;;11.43;4.68;;;13.70;71.50;;;;;;5027079;28;20056;-63
2022/11/11 15:38:39;;;;;;;15.07;6.25;;;13.70;71.50;;;;;;5022616;28;20041;-63
2022/11/11 15:41:27;;;;;;;25.48;13.10;;;13.70;71.60;;;;;;5025529;28;20033;-63
2022/11/11 15:44:30;;;;;;;24.67;12.75;;;13.70;71.80;;;;;;5028627;28;20071;-66
2022/11/11 15:47:17;;;;;;;22.65;12.02;;;13.60;71.90;;;;;;5022411;28;20633;-61
2022/11/11 15:50:03;;;;;;;20.98;9.48;;;13.60;72.10;;;;;;5030213;28;20117;-71
2022/11/11 15:52:57;;;;;;;14.82;7.32;;;13.60;72.20;;;;;;5023776;28;20185;-65
2022/11/11 15:55:52;;;;;;;13.10;6.28;;;13.50;72.30;;;;;;5028249;28;20076;-62
2022/11/11 15:58:36;;;;;;;10.90;5.47;;;13.50;72.50;;;;;;5027293;28;20485;-62
2022/11/11 16:01:25;;;;;;;8.55;4.60;;;13.40;72.50;;;;;;5029765;28;20091;-65